Time;durP1;ratioP1;P1;durP2;ratioP2;P2;SDS_P1;SDS_P2;PMS_P1;PMS_P2;Temp;Humidity;BMP_temperature;BMP_pressure;BME280_temperature;BME280_humidity;BME280_pressure;Samples;Min_cycle;Max_cycle;Signal;HPM_P1;HPM_P2
2022/04/03 00:01:42;;;;;;;4.72;2.90;;;;;;;;;;4994286;28;20130;-84
2022/04/03 00:04:09;;;;;;;6.75;2.90;;;;;;;;;;4993519;28;20370;-84
2022/04/03 00:06:35;;;;;;;6.32;3.33;;;;;;;;;;4977679;28;20050;-84
2022/04/03 00:09:02;;;;;;;4.40;3.10;;;;;;;;;;4993346;28;20061;-85
2022/04/03 00:11:30;;;;;;;5.90;3.33;;;;;;;;;;4994242;28;20069;-84
2022/04/03 00:13:56;;;;;;;7.15;2.95;;;;;;;;;;4994231;28;20054;-84
2022/04/03 00:16:22;;;;;;;8.07;3.00;;;;;;;;;;4994352;28;20053;-84
2022/04/03 00:18:49;;;;;;;7.15;3.15;;;;;;;;;;4993067;28;20058;-85
2022/04/03 00:21:15;;;;;;;6.13;3.17;;;;;;;;;;4992574;28;20057;-84
2022/04/03 00:23:41;;;;;;;4.70;2.88;;;;;;;;;;4994555;28;20094;-81
2022/04/03 00:26:11;;;;;;;5.80;3.30;;;;;;;;;;4993986;28;20053;-84
2022/04/03 00:28:37;;;;;;;9.00;3.08;;;;;;;;;;4993091;28;20069;-83
2022/04/03 00:31:03;;;;;;;6.82;3.05;;;;;;;;;;4992607;28;20050;-83
2022/04/03 00:33:29;;;;;;;5.00;3.20;;;;;;;;;;4992703;28;20401;-83
2022/04/03 00:35:55;;;;;;;8.73;3.63;;;;;;;;;;4992981;28;20061;-82
2022/04/03 00:38:22;;;;;;;9.35;3.30;;;;;;;;;;4975965;28;20042;-83
2022/04/03 00:40:48;;;;;;;10.15;3.20;;;;;;;;;;4992201;28;20105;-84
2022/04/03 00:43:15;;;;;;;9.50;3.40;;;;;;;;;;4992247;28;20116;-84
2022/04/03 00:45:45;;;;;;;5.40;3.10;;;-1.50;99.90;;;;;;4976497;28;20133;-84
2022/04/03 00:48:11;;;;;;;7.32;3.20;;;;;;;;;;4992619;28;20050;-84
2022/04/03 00:50:37;;;;;;;7.50;3.25;;;;;;;;;;4992303;28;20117;-84
2022/04/03 00:53:04;;;;;;;6.20;3.42;;;-1.80;99.90;;;;;;4960201;28;20137;-84
2022/04/03 00:55:30;;;;;;;7.65;3.28;;;;;;;;;;4993773;28;20050;-83
2022/04/03 00:57:57;;;;;;;7.28;3.40;;;-1.80;99.90;;;;;;4975937;28;20050;-85
2022/04/03 01:00:23;;;;;;;6.78;3.30;;;;;;;;;;5002214;23;20059;-81
2022/04/03 01:02:50;;;;;;;8.32;3.30;;;;;;;;;;4961953;28;20054;-80
2022/04/03 01:05:19;;;;;;;6.18;3.22;;;;;;;;;;4994571;28;20057;-80
2022/04/03 01:07:45;;;;;;;5.28;3.30;;;;;;;;;;4976985;28;20061;-79
2022/04/03 01:10:11;;;;;;;5.75;3.20;;;;;;;;;;4976864;28;20043;-81
2022/04/03 01:12:41;;;;;;;6.05;3.30;;;-2.10;99.90;;;;;;4994757;28;20042;-80
2022/04/03 01:15:08;;;;;;;5.90;3.10;;;;;;;;;;4994876;28;20054;-80
2022/04/03 01:17:34;;;;;;;6.75;3.45;;;;;;;;;;4976818;28;20050;-81
2022/04/03 01:20:00;;;;;;;7.97;3.85;;;;;;;;;;4994499;28;20051;-80
2022/04/03 01:22:26;;;;;;;8.32;3.28;;;;;;;;;;4977036;28;20165;-81
2022/04/03 01:24:55;;;;;;;7.43;3.63;;;;;;;;;;4976990;28;20058;-81
2022/04/03 01:27:21;;;;;;;8.50;3.53;;;;;;;;;;4994277;28;20057;-81
2022/04/03 01:29:49;;;;;;;5.72;3.45;;;;;;;;;;4994776;28;20053;-80
2022/04/03 01:32:15;;;;;;;8.85;3.25;;;;;;;;;;4995201;28;20122;-81
2022/04/03 01:34:41;;;;;;;7.22;3.58;;;;;;;;;;4981197;28;20054;-81
2022/04/03 01:37:07;;;;;;;6.05;3.60;;;;;;;;;;4998447;28;20046;-81
2022/04/03 01:39:33;;;;;;;7.63;3.58;;;;;;;;;;4980774;28;20054;-80
2022/04/03 01:42:03;;;;;;;7.97;3.50;;;;;;;;;;4998650;28;20050;-80
2022/04/03 01:44:29;;;;;;;5.63;3.38;;;;;;;;;;4981008;28;20054;-81
2022/04/03 01:46:55;;;;;;;6.43;3.67;;;;;;;;;;4981150;28;20485;-81
2022/04/03 01:49:21;;;;;;;11.13;3.67;;;;;;;;;;4998814;28;20061;-81
2022/04/03 01:51:47;;;;;;;6.05;3.65;;;;;;;;;;4998797;28;20061;-81
2022/04/03 01:54:13;;;;;;;7.53;3.58;;;;;;;;;;4981966;28;20054;-81
2022/04/03 01:56:40;;;;;;;10.32;3.97;;;;;;;;;;4998110;28;20125;-81
2022/04/03 01:59:06;;;;;;;5.72;3.42;;;;;;;;;;4998305;28;20061;-81
2022/04/03 02:01:33;;;;;;;5.57;3.47;;;-2.40;99.90;;;;;;4997657;28;20457;-81
2022/04/03 02:04:00;;;;;;;6.97;3.80;;;;;;;;;;4998329;28;20391;-81
2022/04/03 02:06:27;;;;;;;5.78;3.50;;;;;;;;;;4981536;28;20062;-81
2022/04/03 02:08:53;;;;;;;10.90;3.65;;;;;;;;;;4980787;28;20092;-81
2022/04/03 02:11:19;;;;;;;6.80;3.90;;;;;;;;;;4998156;28;20046;-81
2022/04/03 02:13:45;;;;;;;10.98;4.22;;;;;;;;;;4998327;28;20489;-81
2022/04/03 02:16:11;;;;;;;7.03;4.10;;;;;;;;;;4980638;28;20497;-81
2022/04/03 02:18:40;;;;;;;10.10;4.30;;;;;;;;;;4998214;28;20062;-81
2022/04/03 02:21:06;;;;;;;9.65;4.57;;;;;;;;;;4964817;28;20117;-81
2022/04/03 02:23:32;;;;;;;8.60;4.22;;;;;;;;;;4999113;28;20137;-81
2022/04/03 02:25:58;;;;;;;12.18;4.32;;;;;;;;;;4998859;28;20051;-81
2022/04/03 02:28:24;;;;;;;8.07;4.18;;;;;;;;;;4998313;28;20061;-81
2022/04/03 02:30:50;;;;;;;8.68;4.20;;;;;;;;;;4998762;28;20133;-81
2022/04/03 02:33:16;;;;;;;8.77;4.25;;;;;;;;;;4980137;28;20133;-81
2022/04/03 02:35:42;;;;;;;9.40;4.30;;;;;;;;;;4997920;28;20544;-81
2022/04/03 02:38:08;;;;;;;9.18;3.80;;;;;;;;;;4997289;28;20382;-81
2022/04/03 02:40:35;;;;;;;7.78;4.20;;;;;;;;;;4980113;28;20073;-81
2022/04/03 02:43:03;;;;;;;8.80;4.32;;;;;;;;;;4980278;28;20050;-81
2022/04/03 02:45:29;;;;;;;11.77;4.60;;;;;;;;;;4996960;28;20061;-81
2022/04/03 02:47:56;;;;;;;6.93;4.28;;;;;;;;;;4997327;28;20089;-81
2022/04/03 02:50:26;;;;;;;7.53;4.47;;;;;;;;;;4997462;28;20413;-82
2022/04/03 02:52:54;;;;;;;8.55;4.40;;;;;;;;;;4997675;28;20054;-81
2022/04/03 02:55:20;;;;;;;13.30;4.55;;;;;;;;;;4997527;28;20054;-81
2022/04/03 02:57:47;;;;;;;7.90;4.38;;;;;;;;;;4997040;28;20398;-81
2022/04/03 03:00:17;;;;;;;7.93;4.85;;;;;;;;;;4979301;28;20047;-82
2022/04/03 03:02:43;;;;;;;11.20;4.60;;;;;;;;;;4997116;28;20054;-81
2022/04/03 03:05:09;;;;;;;7.65;4.47;;;;;;;;;;4996802;28;20054;-81
2022/04/03 03:07:37;;;;;;;6.90;4.35;;;;;;;;;;4979111;28;20058;-81
2022/04/03 03:10:04;;;;;;;7.78;4.20;;;;;;;;;;4996906;28;20057;-81
2022/04/03 03:12:30;;;;;;;8.13;4.22;;;;;;;;;;4997545;28;20406;-81
2022/04/03 03:14:56;;;;;;;10.43;4.40;;;;;;;;;;4996797;28;20121;-81
2022/04/03 03:17:22;;;;;;;7.65;4.40;;;;;;;;;;4996541;28;20050;-81
2022/04/03 03:19:49;;;;;;;10.20;4.43;;;;;;;;;;4979567;28;20058;-81
2022/04/03 03:22:15;;;;;;;7.43;4.43;;;;;;;;;;4996820;28;20061;-81
2022/04/03 03:24:41;;;;;;;10.40;4.65;;;;;;;;;;4979255;28;20055;-81
2022/04/03 03:27:07;;;;;;;8.40;4.75;;;;;;;;;;4979070;28;20104;-82
2022/04/03 03:29:33;;;;;;;9.15;4.57;;;;;;;;;;4997145;28;20058;-81
2022/04/03 03:31:59;;;;;;;10.80;4.18;;;;;;;;;;4996605;28;20042;-81
2022/04/03 03:34:26;;;;;;;9.20;4.80;;;;;;;;;;4997460;28;20081;-81
2022/04/03 03:36:52;;;;;;;8.15;4.72;;;;;;;;;;4996684;28;20054;-81
2022/04/03 03:39:18;;;;;;;13.05;4.50;;;;;;;;;;4978930;28;20054;-81
2022/04/03 03:41:44;;;;;;;9.38;4.47;;;;;;;;;;4997508;28;20113;-81
2022/04/03 03:44:10;;;;;;;7.07;4.45;;;;;;;;;;4997799;28;20105;-81
2022/04/03 03:46:37;;;;;;;8.15;4.53;;;;;;;;;;4979660;28;20137;-82
2022/04/03 03:49:04;;;;;;;8.68;4.70;;;;;;;;;;4980769;28;20409;-82
2022/04/03 03:51:30;;;;;;;9.20;4.63;;;;;;;;;;4979899;28;20125;-81
2022/04/03 03:53:56;;;;;;;8.25;4.65;;;;;;;;;;4962935;28;20050;-82
2022/04/03 03:56:22;;;;;;;6.72;4.32;;;;;;;;;;4979351;28;20401;-81
2022/04/03 03:58:48;;;;;;;9.82;4.70;;;;;;;;;;4962982;28;20152;-82
2022/04/03 04:01:14;;;;;;;13.45;4.78;;;;;;;;;;4970490;28;20058;-81
2022/04/03 04:03:40;;;;;;;8.88;4.93;;;;;;;;;;4959662;28;20077;-81
2022/04/03 04:06:07;;;;;;;10.38;4.82;;;;;;;;;;4959678;28;20047;-81
2022/04/03 04:08:33;;;;;;;8.60;5.00;;;;;;;;;;4958994;28;20059;-81
2022/04/03 04:11:00;;;;;;;7.63;4.70;;;;;;;;;;4943260;28;20498;-82
2022/04/03 04:13:26;;;;;;;7.55;4.97;;;;;;;;;;4959207;28;20051;-82
2022/04/03 04:15:54;;;;;;;10.77;5.10;;;;;;;;;;4959621;28;20055;-82
2022/04/03 04:18:20;;;;;;;11.40;4.78;;;;;;;;;;4958921;28;20114;-82
2022/04/03 04:20:46;;;;;;;7.38;4.63;;;;;;;;;;4943128;28;20117;-82
2022/04/03 04:23:13;;;;;;;8.55;4.60;;;;;;;;;;4942896;28;20052;-81
2022/04/03 04:25:39;;;;;;;7.82;4.82;;;;;;;;;;4943508;28;20087;-82
2022/04/03 04:28:05;;;;;;;8.82;4.97;;;;;;;;;;4942993;28;20144;-81
2022/04/03 04:30:32;;;;;;;8.45;4.88;;;;;;;;;;4942603;28;20046;-82
2022/04/03 04:32:58;;;;;;;10.95;4.88;;;;;;;;;;4942724;28;20054;-82
2022/04/03 04:35:24;;;;;;;12.30;5.15;;;;;;;;;;4958627;28;20141;-82
2022/04/03 04:37:53;;;;;;;8.48;5.10;;;;;;;;;;4942722;28;20051;-81
2022/04/03 04:40:19;;;;;;;10.80;5.05;;;;;;;;;;4942739;28;20059;-82
2022/04/03 04:42:47;;;;;;;7.70;5.22;;;;;;;;;;4958791;28;20102;-82
2022/04/03 04:45:14;;;;;;;11.25;5.65;;;;;;;;;;4959025;28;20050;-82
2022/04/03 04:47:41;;;;;;;10.55;5.78;;;;;;;;;;4943036;28;20059;-82
2022/04/03 04:50:09;;;;;;;10.25;6.30;;;-0.90;99.90;;;;;;4959109;28;20075;-81
2022/04/03 04:52:36;;;;;;;10.93;6.60;;;-0.80;99.90;;;;;;4942761;28;20130;-82
2022/04/03 04:55:06;;;;;;;10.77;6.07;;;;;;;;;;4958484;28;20065;-81
2022/04/03 04:57:33;;;;;;;9.30;6.30;;;-0.70;99.90;;;;;;4942116;28;20533;-82
2022/04/03 04:59:59;;;;;;;10.93;6.60;;;-0.60;99.90;;;;;;4958437;28;20482;-82
2022/04/03 05:02:25;;;;;;;11.32;6.55;;;;;;;;;;4958660;28;20450;-82
2022/04/03 05:04:51;;;;;;;12.05;6.55;;;;;;;;;;4942913;28;20046;-83
2022/04/03 05:07:17;;;;;;;9.05;6.10;;;;;;;;;;4959057;28;20410;-82
2022/04/03 05:09:46;;;;;;;9.13;5.63;;;-0.60;99.90;;;;;;4942782;28;20058;-82
2022/04/03 05:12:13;;;;;;;9.43;6.00;;;-0.50;99.90;;;;;;4958566;28;20386;-81
2022/04/03 05:14:39;;;;;;;10.60;5.90;;;;;;;;;;4958090;28;20054;-82
2022/04/03 05:17:06;;;;;;;14.50;6.75;;;;;;;;;;4958040;28;20383;-82
2022/04/03 05:19:32;;;;;;;10.57;6.50;;;;;;;;;;4957952;28;20059;-82
2022/04/03 05:21:58;;;;;;;15.13;6.80;;;;;;;;;;4974995;28;20058;-82
2022/04/03 05:24:25;;;;;;;11.68;6.63;;;;;;;;;;4974932;28;20451;-82
2022/04/03 05:26:51;;;;;;;13.10;6.28;;;;;;;;;;4957780;28;20398;-82
2022/04/03 05:29:17;;;;;;;13.40;6.50;;;;;;;;;;4941477;28;20043;-82
2022/04/03 05:31:44;;;;;;;9.68;6.15;;;-0.30;99.90;;;;;;4958324;28;20451;-82
2022/04/03 05:34:10;;;;;;;9.68;6.30;;;;;;;;;;4957872;28;20125;-82
2022/04/03 05:36:36;;;;;;;8.77;5.60;;;;;;;;;;4941509;28;20433;-82
2022/04/03 05:39:04;;;;;;;9.07;6.15;;;-0.30;99.90;;;;;;4958181;28;20081;-82
2022/04/03 05:41:37;;;;;;;9.10;5.85;;;0.00;99.90;;;;;;4975508;28;20047;-82
2022/04/03 05:44:04;;;;;;;8.93;5.78;;;;;;;;;;4958462;28;20138;-82
2022/04/03 05:46:30;;;;;;;10.68;5.55;;;;;;;;;;4943159;28;20383;-82
2022/04/03 05:48:56;;;;;;;8.40;5.30;;;;;;;;;;4942938;28;20141;-82
2022/04/03 05:51:22;;;;;;;7.88;5.32;;;;;;;;;;4959616;28;20054;-81
2022/04/03 05:53:48;;;;;;;11.32;5.22;;;;;;;;;;4944007;28;20063;-82
2022/04/03 05:56:14;;;;;;;9.13;5.22;;;;;;;;;;4960035;28;20079;-82
2022/04/03 05:58:40;;;;;;;9.95;5.80;;;;;;;;;;4959832;28;20062;-81
2022/04/03 06:01:06;;;;;;;8.48;5.30;;;;;;;;;;4959948;28;20126;-82
2022/04/03 06:03:33;;;;;;;9.48;5.78;;;;;;;;;;4959924;28;20102;-81
2022/04/03 06:06:00;;;;;;;10.32;5.53;;;;;;;;;;4958417;28;20546;-81
2022/04/03 06:08:26;;;;;;;8.23;6.05;;;;;;;;;;4957744;28;20094;-82
2022/04/03 06:10:52;;;;;;;8.93;5.97;;;;;;;;;;4957853;28;20114;-82
2022/04/03 06:13:18;;;;;;;9.43;5.20;;;;;;;;;;4975138;28;20133;-82
2022/04/03 06:15:47;;;;;;;10.48;5.10;;;;;;;;;;4958598;28;20501;-82
2022/04/03 06:18:19;;;;;;;11.73;6.53;;;0.50;99.90;;;;;;4957897;28;20082;-82
2022/04/03 06:20:45;;;;;;;15.23;8.40;;;;;;;;;;4979846;28;20058;-81
2022/04/03 06:23:21;;;;;;;14.73;7.80;;;0.80;99.90;;;;;;4961384;28;20055;-80
2022/04/03 06:25:48;;;;;;;;;;;0.70;99.90;;;;;;4945869;28;20057;-81
2022/04/03 06:28:14;;;;;;;;;;;0.80;99.90;;;;;;4979399;28;19925;-80
2022/04/03 06:30:43;;;;;;;11.68;8.07;;;;;;;;;;4945682;28;20443;-82
2022/04/03 06:33:09;;;;;;;10.32;6.47;;;;;;;;;;4961531;28;20490;-81
2022/04/03 06:35:35;;;;;;;10.57;5.35;;;;;;;;;;4978207;28;20114;-80
2022/04/03 06:38:02;;;;;;;8.25;5.20;;;;;;;;;;4962218;28;20395;-81
2022/04/03 06:40:37;;;;;;;6.50;4.40;;;6.40;99.90;;;;;;4978909;28;20529;-81
2022/04/03 06:43:03;;;;;;;;;;;6.50;99.90;;;;;;4973752;28;20043;-81
2022/04/03 06:45:31;;;;;;;8.52;5.15;;;;;;;;;;4936222;28;19993;-81
2022/04/03 06:48:00;;;;;;;6.57;4.32;;;;;;;;;;4950316;29;20109;-81
2022/04/03 06:50:26;;;;;;;7.30;4.45;;;;;;;;;;4938210;28;20047;-78
2022/04/03 06:52:52;;;;;;;8.75;4.20;;;;;;;;;;4948722;29;20110;-78
2022/04/03 06:55:19;;;;;;;6.45;4.20;;;;;;;;;;4948110;29;20058;-81
2022/04/03 06:57:45;;;;;;;8.27;4.72;;;;;;;;;;4943550;29;20503;-81
2022/04/03 07:00:13;;;;;;;6.70;4.30;;;;;;;;;;4945243;28;20686;-82
2022/04/03 07:02:39;;;;;;;6.80;4.38;;;;;;;;;;4967168;28;20090;-81
2022/04/03 07:05:05;;;;;;;6.72;4.20;;;;;;;;;;4960779;28;20087;-83
2022/04/03 07:07:32;;;;;;;6.88;3.90;;;;;;;;;;4950670;29;20062;-81
2022/04/03 07:09:58;;;;;;;6.75;4.15;;;;;;;;;;4960605;29;20051;-81
2022/04/03 07:12:24;;;;;;;6.95;3.88;;;;;;;;;;4954157;28;20046;-81
2022/04/03 07:14:50;;;;;;;5.65;4.00;;;;;;;;;;4946632;28;20059;-80
2022/04/03 07:17:16;;;;;;;7.10;3.72;;;;;;;;;;4961891;28;20058;-81
2022/04/03 07:19:42;;;;;;;6.15;3.30;;;;;;;;;;4962104;28;20051;-81
2022/04/03 07:22:09;;;;;;;5.07;3.10;;;;;;;;;;4962300;28;20118;-82
2022/04/03 07:24:35;;;;;;;5.25;3.35;;;;;;;;;;4945578;28;20086;-81
2022/04/03 07:27:01;;;;;;;6.63;3.45;;;;;;;;;;4944946;28;20097;-81
2022/04/03 07:29:27;;;;;;;7.43;3.33;;;;;;;;;;4944075;28;20055;-81
2022/04/03 07:31:53;;;;;;;5.60;3.22;;;;;;;;;;4944062;28;20086;-81
2022/04/03 07:34:19;;;;;;;7.13;3.30;;;;;;;;;;4960338;28;20446;-81
2022/04/03 07:36:45;;;;;;;7.07;3.05;;;;;;;;;;4945455;28;20054;-82
2022/04/03 07:39:12;;;;;;;4.90;3.00;;;;;;;;;;4960188;28;20486;-81
2022/04/03 07:41:39;;;;;;;6.28;3.00;;;14.00;59.30;;;;;;4960160;28;20137;-81
2022/04/03 07:44:05;;;;;;;5.50;3.00;;;13.80;59.00;;;;;;4978642;28;20047;-82
2022/04/03 07:46:32;;;;;;;5.55;2.90;;;;;;;;;;4961591;28;20050;-82
2022/04/03 07:48:58;;;;;;;13.27;11.88;;;;;;;;;;4945414;28;20059;-81
2022/04/03 07:51:27;;;;;;;8.02;3.13;;;;;;;;;;4976813;28;20057;-81
2022/04/03 07:53:54;;;;;;;5.15;3.20;;;15.30;56.20;;;;;;4959048;28;20486;-81
2022/04/03 07:56:20;;;;;;;4.35;2.30;;;;;;;;;;4959785;28;20062;-81
2022/04/03 07:58:47;;;;;;;6.55;2.80;;;;;;;;;;4960843;28;20066;-82
2022/04/03 08:01:13;;;;;;;5.50;2.50;;;;;;;;;;4950326;28;20046;-82
2022/04/03 08:03:41;;;;;;;4.20;2.30;;;;;;;;;;4963547;28;20058;-82
2022/04/03 08:06:07;;;;;;;6.15;2.47;;;;;;;;;;4964324;28;20058;-81
2022/04/03 08:08:34;;;;;;;6.13;2.30;;;;;;;;;;4979732;28;20129;-81
2022/04/03 08:11:00;;;;;;;4.97;2.40;;;;;;;;;;4979125;28;20528;-82
2022/04/03 08:13:35;;;;;;;5.53;2.40;;;;;;;;;;4961992;28;20152;-81
2022/04/03 08:16:03;;;;;;;4.05;2.50;;;;;;;;;;4948382;28;20054;-81
2022/04/03 08:18:29;;;;;;;4.28;2.95;;;;;;;;;;4995736;28;20498;-82
2022/04/03 08:20:55;;;;;;;4.85;2.20;;;;;;;;;;4978373;28;20062;-81
2022/04/03 08:23:21;;;;;;;6.05;2.30;;;;;;;;;;4995672;28;20046;-81
2022/04/03 08:25:56;;;;;;;5.55;2.15;;;10.30;78.70;;;;;;4978960;28;20058;-82
2022/04/03 08:28:25;;;;;;;7.30;2.45;;;;;;;;;;4979198;28;20057;-81
2022/04/03 08:30:51;;;;;;;5.43;2.10;;;;;;;;;;4977843;28;20057;-79
2022/04/03 08:33:17;;;;;;;3.70;1.95;;;;;;;;;;4977327;28;20052;-81
2022/04/03 08:35:51;;;;;;;6.55;2.30;;;;;;;;;;4977455;28;20047;-81
2022/04/03 08:38:18;;;;;;;6.68;2.38;;;;;;;;;;4976721;28;20489;-81
2022/04/03 08:40:44;;;;;;;4.82;2.03;;;;;;;;;;4994919;28;20125;-82
2022/04/03 08:43:13;;;;;;;5.00;2.10;;;11.50;86.00;;;;;;4976261;28;20536;-83
2022/04/03 08:45:39;;;;;;;4.32;1.80;;;;;;;;;;4949345;28;20050;-81
2022/04/03 08:48:06;;;;;;;4.07;2.05;;;;;;;;;;4958270;28;20051;-82
2022/04/03 08:50:39;;;;;;;4.55;1.90;;;12.00;80.60;;;;;;4949700;28;20443;-81
2022/04/03 08:53:07;;;;;;;20.30;13.40;;;12.10;80.70;;;;;;4961573;28;20054;-81
2022/04/03 08:55:33;;;;;;;7.47;2.50;;;;;;;;;;4977907;28;20050;-81
2022/04/03 08:57:59;;;;;;;4.93;2.15;;;;;;;;;;4978252;28;20126;-82
2022/04/03 09:00:31;;;;;;;6.75;1.88;;;12.20;77.50;;;;;;4962027;28;20050;-82
2022/04/03 09:02:59;;;;;;;4.95;1.95;;;12.20;77.50;;;;;;4939963;29;20054;-81
2022/04/03 09:05:36;;;;;;;6.00;1.98;;;12.10;75.70;;;;;;4922454;28;20051;-82
2022/04/03 09:08:02;;;;;;;6.45;2.05;;;;;;;;;;4938933;28;20051;-82
2022/04/03 09:10:29;;;;;;;5.90;1.70;;;11.70;76.90;;;;;;4940172;29;20051;-82
2022/04/03 09:12:55;;;;;;;6.57;1.90;;;;;;;;;;4940382;29;20058;-81
2022/04/03 09:15:26;;;;;;;3.65;1.80;;;11.10;80.10;;;;;;4940636;28;20047;-81
2022/04/03 09:17:57;;;;;;;3.67;1.77;;;10.90;81.40;;;;;;4942531;29;20065;-82
2022/04/03 09:20:30;;;;;;;4.75;1.90;;;10.50;86.20;;;;;;4948375;28;20082;-81
2022/04/03 09:23:04;;;;;;;6.07;2.00;;;10.00;87.40;;;;;;4946426;28;20046;-81
2022/04/03 09:25:37;;;;;;;6.75;2.00;;;9.50;91.90;;;;;;4981694;28;20047;-81
2022/04/03 09:28:08;;;;;;;3.88;1.75;;;9.20;94.10;;;;;;4947598;28;20111;-82
2022/04/03 09:30:39;;;;;;;5.55;1.90;;;9.60;95.30;;;;;;4964594;28;20428;-82
2022/04/03 09:33:06;;;;;;;4.25;1.80;;;9.90;95.50;;;;;;4940539;28;20058;-84
2022/04/03 09:36:01;;;;;;;5.32;2.22;;;10.00;94.10;;;;;;4957625;28;20062;-81
2022/04/03 09:38:27;;;;;;;5.70;1.80;;;;;;;;;;4940154;28;20167;-81
2022/04/03 09:40:58;;;;;;;3.60;1.75;;;9.60;93.40;;;;;;4954671;28;20388;-83
2022/04/03 09:43:28;;;;;;;7.10;2.00;;;9.40;93.90;;;;;;4948367;28;20141;-81
2022/04/03 09:45:59;;;;;;;6.47;1.85;;;9.10;94.00;;;;;;4940914;28;20074;-81
2022/04/03 09:48:35;;;;;;;6.78;1.70;;;8.90;95.30;;;;;;4955727;28;20053;-80
2022/04/03 09:51:09;;;;;;;6.38;1.92;;;8.80;97.40;;;;;;4939373;28;20046;-83
2022/04/03 09:53:45;;;;;;;5.05;1.90;;;8.90;96.30;;;;;;4957493;28;20097;-83
2022/04/03 09:56:26;;;;;;;4.35;1.80;;;8.90;96.10;;;;;;4960403;28;20047;-81
2022/04/03 09:58:53;;;;;;;7.20;2.00;;;;;;;;;;4962566;28;20082;-81
2022/04/03 10:01:30;;;;;;;4.65;1.60;;;;;;;;;;4970054;28;20579;-82
2022/04/03 10:04:00;;;;;;;6.00;1.70;;;8.60;97.70;;;;;;4982907;28;20082;-81
2022/04/03 10:06:27;;;;;;;3.67;1.48;;;8.50;98.60;;;;;;4982691;28;20058;-81
2022/04/03 10:08:53;;;;;;;4.72;2.00;;;;;;;;;;4983417;28;20133;-82
2022/04/03 10:11:22;;;;;;;4.15;1.60;;;;;;;;;;4966132;28;20421;-81
2022/04/03 10:13:51;;;;;;;5.93;1.70;;;;;;;;;;4998626;28;20420;-80
2022/04/03 10:16:18;;;;;;;5.65;2.35;;;;;;;;;;4997978;28;20061;-81
2022/04/03 10:18:44;;;;;;;7.30;2.00;;;;;;;;;;5002333;28;20058;-81
2022/04/03 10:21:23;;;;;;;7.95;2.08;;;8.70;99.90;;;;;;4967791;28;20090;-80
2022/04/03 10:23:54;;;;;;;4.55;1.80;;;8.90;99.90;;;;;;4977055;28;20070;-80
2022/04/03 10:26:22;;;;;;;4.43;1.65;;;9.20;99.90;;;;;;4961760;28;20065;-79
2022/04/03 10:28:53;;;;;;;9.55;1.90;;;9.30;99.70;;;;;;4977093;28;20059;-80
2022/04/03 10:31:20;;;;;;;3.58;1.40;;;;;;;;;;4980746;28;20102;-81
2022/04/03 10:33:50;;;;;;;3.42;1.50;;;9.80;95.80;;;;;;4978914;28;20102;-82
2022/04/03 10:36:26;;;;;;;6.70;1.50;;;10.20;95.00;;;;;;4976683;28;20042;-81
2022/04/03 10:39:09;;;;;;;3.25;1.25;;;10.20;85.50;;;;;;4992989;28;20038;-81
2022/04/03 10:41:37;;;;;;;3.33;1.40;;;10.20;80.60;;;;;;4973821;29;20055;-80
2022/04/03 10:44:19;;;;;;;3.42;1.50;;;10.30;82.50;;;;;;4992183;28;20047;-82
2022/04/03 10:47:03;;;;;;;3.75;1.45;;;10.60;84.80;;;;;;4984942;28;20051;-81
2022/04/03 10:49:38;;;;;;;1.92;1.10;;;10.40;85.00;;;;;;4979145;28;20047;-81
2022/04/03 10:52:06;;;;;;;3.65;1.40;;;10.40;88.10;;;;;;4982323;28;20051;-82
2022/04/03 10:54:40;;;;;;;5.10;1.27;;;10.40;83.80;;;;;;4966843;28;20552;-81
2022/04/03 10:57:46;;;;;;;3.78;1.27;;;10.30;83.40;;;;;;4950391;28;20051;-81
2022/04/03 11:00:12;;;;;;;6.53;1.63;;;;;;;;;;4982501;28;20382;-81
2022/04/03 11:02:51;;;;;;;3.80;1.40;;;9.90;87.20;;;;;;4983256;28;20107;-80
2022/04/03 11:05:26;;;;;;;2.80;1.50;;;;;;;;;;4981031;28;20058;-80
2022/04/03 11:08:03;;;;;;;4.18;1.70;;;9.40;90.60;;;;;;4948168;28;20109;-81
2022/04/03 11:11:00;;;;;;;5.03;1.73;;;9.30;91.70;;;;;;4964338;28;20047;-81
2022/04/03 11:13:29;;;;;;;4.72;1.60;;;;;;;;;;4965511;28;20058;-80
2022/04/03 11:15:56;;;;;;;5.50;1.70;;;9.00;92.40;;;;;;4968612;28;20070;-81
2022/04/03 11:18:41;;;;;;;3.45;1.20;;;9.10;92.50;;;;;;4967164;28;20061;-81
2022/04/03 11:21:08;;;;;;;4.10;1.50;;;;;;;;;;4995163;28;20057;-82
2022/04/03 11:24:10;;;;;;;3.10;1.48;;;9.30;93.30;;;;;;5002288;28;20536;-81
2022/04/03 11:26:37;;;;;;;2.50;1.40;;;9.20;92.50;;;;;;4967761;28;20069;-81
2022/04/03 11:29:04;;;;;;;3.35;1.25;;;9.30;92.90;;;;;;5002528;28;20050;-81
2022/04/03 11:31:31;;;;;;;8.23;1.65;;;9.40;92.50;;;;;;5001719;28;20046;-79
2022/04/03 11:33:58;;;;;;;2.47;1.30;;;;;;;;;;5003508;28;20207;-80
2022/04/03 11:36:31;;;;;;;4.90;1.42;;;9.30;91.60;;;;;;4983175;28;20549;-80
2022/04/03 11:39:00;;;;;;;3.75;1.40;;;9.20;91.90;;;;;;4982035;28;20092;-83
2022/04/03 11:41:27;;;;;;;4.57;1.40;;;;;;;;;;4997801;28;20158;-81
2022/04/03 11:44:01;;;;;;;17.92;10.93;;;8.90;91.90;;;;;;4981811;28;20051;-80
2022/04/03 11:46:48;;;;;;;4.55;2.13;;;8.90;92.10;;;;;;4966328;28;21114;-80
2022/04/03 11:49:21;;;;;;;4.40;1.60;;;8.80;93.00;;;;;;4981383;28;20485;-81
2022/04/03 11:51:50;;;;;;;5.75;2.13;;;;;;;;;;4997912;28;20051;-80
2022/04/03 11:54:19;;;;;;;6.65;4.43;;;8.80;96.10;;;;;;4997963;28;20050;-80
2022/04/03 11:56:45;;;;;;;5.82;2.50;;;;;;;;;;4982062;28;20050;-80
2022/04/03 11:59:11;;;;;;;3.40;1.50;;;;;;;;;;4981690;28;20054;-80
2022/04/03 12:01:41;;;;;;;2.75;1.30;;;9.80;89.90;;;;;;4981922;28;20058;-80
2022/04/03 12:04:14;;;;;;;3.75;1.15;;;10.00;89.20;;;;;;4982347;28;20054;-81
2022/04/03 12:06:42;;;;;;;1.70;1.00;;;10.40;84.80;;;;;;4981344;28;20502;-81
2022/04/03 12:09:18;;;;;;;5.50;1.15;;;10.70;84.00;;;;;;4998045;28;20474;-80
2022/04/03 12:11:50;;;;;;;;;;;10.70;82.10;;;;;;4980671;28;20482;-80
2022/04/03 12:14:30;;;;;;;3.28;1.40;;;10.80;81.40;;;;;;4981248;28;20004;-81
2022/04/03 12:17:04;;;;;;;6.07;1.25;;;10.70;79.20;;;;;;4996947;28;20050;-78
2022/04/03 12:19:37;;;;;;;2.72;1.35;;;10.50;78.70;;;;;;4965277;28;20058;-82
2022/04/03 12:22:04;;;;;;;1.63;1.30;;;;;;;;;;4981384;28;20050;-81
2022/04/03 12:24:35;;;;;;;3.33;1.40;;;10.20;82.00;;;;;;4982466;28;20065;-80
2022/04/03 12:27:08;;;;;;;3.45;1.30;;;10.00;83.90;;;;;;4982737;28;20525;-80
2022/04/03 12:29:35;;;;;;;4.00;1.48;;;9.80;86.30;;;;;;4983346;28;20105;-80
2022/04/03 12:32:10;;;;;;;4.20;1.33;;;9.70;84.30;;;;;;4968618;28;20046;-80
2022/04/03 12:34:40;;;;;;;1.98;1.30;;;9.70;86.30;;;;;;4988343;28;20089;-80
2022/04/03 12:37:06;;;;;;;3.83;1.40;;;;;;;;;;4969034;28;20056;-80
2022/04/03 12:39:40;;;;;;;3.85;1.50;;;9.40;86.80;;;;;;4974934;28;20050;-82
2022/04/03 12:42:12;;;;;;;3.60;1.70;;;;;;;;;;4962190;28;20081;-80
2022/04/03 12:45:16;;;;;;;3.33;1.60;;;9.30;90.00;;;;;;4984370;28;20113;-81
2022/04/03 12:47:45;;;;;;;2.78;1.83;;;9.30;87.90;;;;;;5003694;28;20054;-81
2022/04/03 12:50:16;;;;;;;7.70;3.05;;;9.20;87.00;;;;;;4968378;28;20550;-81
2022/04/03 12:52:48;;;;;;;5.03;2.42;;;9.30;89.30;;;;;;4980879;28;20050;-81
2022/04/03 12:55:24;;;;;;;5.25;2.38;;;;;;;;;;4980559;28;20128;-82
2022/04/03 13:00:54;;;;;;;5.32;2.17;;;9.30;87.70;;;;;;4979496;28;20504;-81
2022/04/03 13:03:23;;;;;;;18.30;8.60;;;;;;;;;;4978215;28;20138;-80
2022/04/03 13:05:57;;;;;;;6.40;3.30;;;9.70;84.70;;;;;;4978271;28;20053;-80
2022/04/03 13:08:24;;;;;;;9.93;4.78;;;;;;;;;;4995122;28;20058;-79
2022/04/03 13:10:58;;;;;;;6.85;3.45;;;9.70;87.10;;;;;;4995532;28;20046;-79
2022/04/03 13:13:24;;;;;;;9.15;4.25;;;;;;;;;;4947924;28;20038;-80
2022/04/03 13:15:53;;;;;;;7.63;3.40;;;9.70;90.90;;;;;;4995446;28;20125;-79
2022/04/03 13:18:23;;;;;;;7.75;2.83;;;9.70;91.00;;;;;;4977960;28;20504;-81
2022/04/03 13:20:58;;;;;;;17.42;6.82;;;9.70;90.40;;;;;;4971848;28;20494;-79
2022/04/03 13:23:34;;;;;;;41.17;15.65;;;9.80;91.00;;;;;;4994124;28;20073;-79
2022/04/03 13:26:21;;;;;;;19.08;7.20;;;9.70;91.20;;;;;;4961770;28;20062;-79
2022/04/03 13:28:53;;;;;;;16.90;8.63;;;;;;;;;;4973241;28;20054;-78
2022/04/03 13:31:23;;;;;;;4.63;2.60;;;9.70;86.20;;;;;;4978022;28;20057;-79
2022/04/03 13:33:52;;;;;;;3.00;2.00;;;;;;;;;;4976906;28;20397;-80
2022/04/03 13:36:38;;;;;;;5.20;2.17;;;9.60;84.90;;;;;;4944857;28;20057;-79
2022/04/03 13:39:18;;;;;;;9.65;4.50;;;9.50;86.40;;;;;;4993894;28;20058;-80
2022/04/03 13:42:10;;;;;;;11.75;7.28;;;9.40;82.80;;;;;;4977952;28;20096;-79
2022/04/03 13:44:57;;;;;;;13.88;6.72;;;9.40;88.40;;;;;;4994470;28;20081;-80
2022/04/03 13:47:32;;;;;;;13.00;6.05;;;;;;;;;;4962354;28;20054;-79
2022/04/03 13:49:59;;;;;;;4.97;2.47;;;;;;;;;;4962260;28;20050;-79
2022/04/03 13:52:25;;;;;;;24.15;10.38;;;;;;;;;;4977582;28;20050;-79
2022/04/03 13:54:57;;;;;;;4.22;1.20;;;10.00;83.00;;;;;;4976714;28;20109;-80
2022/04/03 13:57:37;;;;;;;5.22;1.30;;;10.30;77.60;;;;;;4961998;28;20494;-80
2022/04/03 14:00:03;;;;;;;16.50;6.70;;;;;;;;;;4977966;28;20065;-78
2022/04/03 14:02:32;;;;;;;3.90;1.20;;;;;;;;;;4944692;28;20497;-80
2022/04/03 14:04:58;;;;;;;2.35;1.42;;;;;;;;;;4977861;28;20457;-79
2022/04/03 14:07:24;;;;;;;2.75;0.98;;;;;;;;;;4961680;28;20490;-80
2022/04/03 14:10:05;;;;;;;4.45;1.40;;;11.40;69.20;;;;;;4963053;28;20046;-80
2022/04/03 14:12:32;;;;;;;9.20;3.75;;;;;;;;;;4978992;28;20121;-79
2022/04/03 14:14:58;;;;;;;4.97;1.63;;;;;;;;;;4980105;28;20094;-79